createdAt,value
2019-03-30T00:01:33.695Z,91.19
2019-03-30T00:04:38.112Z,91.42
2019-03-30T00:07:42.460Z,91.46
2019-03-30T00:10:47.222Z,91.31
2019-03-30T00:13:51.667Z,91.28
2019-03-30T00:16:56.055Z,91.41
2019-03-30T00:20:00.480Z,91.33
2019-03-30T00:23:04.904Z,91.23
2019-03-30T00:26:09.370Z,91.38
2019-03-30T00:29:13.710Z,91.31
2019-03-30T00:32:18.127Z,91.41
2019-03-30T00:35:22.500Z,91.48
2019-03-30T00:38:26.847Z,91.48
2019-03-30T00:41:31.203Z,91.91
2019-03-30T00:44:35.570Z,92.19
2019-03-30T00:47:39.943Z,92.34
2019-03-30T00:50:44.371Z,93.35
2019-03-30T00:53:48.728Z,94.04
2019-03-30T00:56:53.063Z,93.93
2019-03-30T00:59:57.417Z,94.06
2019-03-30T01:03:01.836Z,94.41
2019-03-30T01:06:06.292Z,94.45
2019-03-30T01:09:10.797Z,94.33
2019-03-30T01:12:15.264Z,94.15
2019-03-30T01:15:19.783Z,94.01
2019-03-30T01:18:24.133Z,93.96
2019-03-30T01:21:28.499Z,93.86
2019-03-30T01:24:32.903Z,93.84
2019-03-30T01:27:37.326Z,93.75
2019-03-30T01:30:41.665Z,93.75
2019-03-30T01:33:46.025Z,93.68
2019-03-30T01:36:50.381Z,93.58
2019-03-30T01:39:54.711Z,93.47
2019-03-30T01:42:59.054Z,93.53
2019-03-30T01:46:03.483Z,93.61
2019-03-30T01:49:07.847Z,93.68
2019-03-30T01:52:12.221Z,93.76
2019-03-30T01:55:16.664Z,93.79
2019-03-30T01:58:21.007Z,93.77
2019-03-30T02:01:25.374Z,93.76
2019-03-30T02:04:29.701Z,93.77
2019-03-30T02:07:34.126Z,93.76
2019-03-30T02:10:40.686Z,93.79
2019-03-30T02:13:45.035Z,93.71
2019-03-30T02:16:49.557Z,93.64
2019-03-30T02:19:54.070Z,93.64
2019-03-30T02:22:58.416Z,93.46
2019-03-30T02:26:02.838Z,93.46
2019-03-30T02:29:07.210Z,93.49
2019-03-30T02:32:11.570Z,93.46
2019-03-30T02:35:16.408Z,93.48
2019-03-30T02:38:20.759Z,93.51
2019-03-30T02:41:25.177Z,93.48
2019-03-30T02:44:29.526Z,93.41
2019-03-30T02:47:33.891Z,93.40
2019-03-30T02:50:49.277Z,93.40
2019-03-30T02:53:44.314Z,93.33
2019-03-30T02:56:48.670Z,93.41
2019-03-30T02:59:53.027Z,93.40
2019-03-30T03:02:57.394Z,93.36
2019-03-30T03:06:01.857Z,93.39
2019-03-30T03:09:09.480Z,93.38
2019-03-30T03:12:13.941Z,93.33
2019-03-30T03:15:18.473Z,93.23
2019-03-30T03:18:22.898Z,93.18
2019-03-30T03:21:27.330Z,93.20
2019-03-30T03:24:31.706Z,93.29
2019-03-30T03:27:36.037Z,93.42
2019-03-30T03:30:40.697Z,93.44
2019-03-30T03:33:45.141Z,93.39
2019-03-30T03:36:49.493Z,93.45
2019-03-30T03:39:53.843Z,93.49
2019-03-30T03:42:58.177Z,93.35
2019-03-30T03:46:02.636Z,93.31
2019-03-30T03:49:06.972Z,93.27
2019-03-30T03:52:11.444Z,93.17
2019-03-30T03:55:15.798Z,93.19
2019-03-30T03:58:22.231Z,93.14
2019-03-30T04:01:27.563Z,93.19
2019-03-30T04:04:33.389Z,93.31
2019-03-30T04:07:41.986Z,93.29
2019-03-30T04:10:50.181Z,93.29
2019-03-30T04:13:57.524Z,93.38
2019-03-30T04:17:02.068Z,93.42
2019-03-30T04:20:07.055Z,93.37
2019-03-30T04:23:11.428Z,93.39
2019-03-30T04:26:15.759Z,93.40
2019-03-30T04:29:20.113Z,93.37
2019-03-30T04:32:24.448Z,93.34
2019-03-30T04:35:28.896Z,93.42
2019-03-30T04:38:33.245Z,93.42
2019-03-30T04:41:37.609Z,93.44
2019-03-30T04:44:41.971Z,93.33
2019-03-30T04:47:46.320Z,93.29
2019-03-30T04:50:50.679Z,93.26
2019-03-30T04:53:55.007Z,93.21
2019-03-30T04:56:59.476Z,93.31
2019-03-30T05:00:04.106Z,93.47
2019-03-30T05:03:08.439Z,93.52
2019-03-30T05:06:12.788Z,93.49
2019-03-30T05:09:17.135Z,93.54
2019-03-30T05:12:21.594Z,93.39
2019-03-30T05:15:25.947Z,93.43
2019-03-30T05:18:30.385Z,93.47
2019-03-30T05:21:34.749Z,93.43
2019-03-30T05:24:39.095Z,93.48
2019-03-30T05:27:43.443Z,93.45
2019-03-30T05:30:47.804Z,93.40
2019-03-30T05:33:52.153Z,93.44
2019-03-30T05:36:56.530Z,93.37
2019-03-30T05:40:00.846Z,93.52
2019-03-30T05:43:05.295Z,93.59
2019-03-30T05:46:09.644Z,93.67
2019-03-30T05:49:14.007Z,93.67
2019-03-30T05:52:26.395Z,93.81
2019-03-30T05:55:24.511Z,93.91
2019-03-30T05:58:28.865Z,94.11
2019-03-30T06:01:33.236Z,94.05
2019-03-30T06:04:37.597Z,93.94
2019-03-30T06:07:41.962Z,93.99
2019-03-30T06:10:46.389Z,93.98
2019-03-30T06:13:50.832Z,94.03
2019-03-30T06:16:55.178Z,94.00
2019-03-30T06:19:59.582Z,94.09
2019-03-30T06:23:03.987Z,94.24
2019-03-30T06:26:08.359Z,94.32
2019-03-30T06:29:12.687Z,94.45
2019-03-30T06:32:17.036Z,94.56
2019-03-30T06:35:21.533Z,94.58
2019-03-30T06:38:25.899Z,94.71
2019-03-30T06:41:30.246Z,94.73
2019-03-30T06:44:34.594Z,94.97
2019-03-30T06:47:38.963Z,95.23
2019-03-30T06:50:43.407Z,95.37
2019-03-30T06:53:47.815Z,95.31
2019-03-30T06:56:52.181Z,95.11
2019-03-30T06:59:56.642Z,95.91
2019-03-30T07:03:03.428Z,96.11
2019-03-30T07:06:08.124Z,96.28
2019-03-30T07:09:12.639Z,96.05
2019-03-30T07:12:19.809Z,96.01
2019-03-30T07:15:26.218Z,96.12
2019-03-30T07:18:31.439Z,96.35
2019-03-30T07:21:35.909Z,96.25
2019-03-30T07:24:40.280Z,96.18
2019-03-30T07:27:46.616Z,96.38
2019-03-30T07:30:50.702Z,96.21
2019-03-30T07:33:55.115Z,96.29
2019-03-30T07:36:59.462Z,96.32
2019-03-30T07:40:04.152Z,95.66
2019-03-30T07:43:08.493Z,95.21
2019-03-30T07:46:12.892Z,95.02
2019-03-30T07:49:17.242Z,94.30
2019-03-30T07:52:21.588Z,94.06
2019-03-30T07:55:25.927Z,93.90
2019-03-30T07:58:30.276Z,93.20
2019-03-30T08:01:34.622Z,92.90
2019-03-30T08:04:38.978Z,91.80
2019-03-30T08:07:43.328Z,91.51
2019-03-30T08:10:47.669Z,90.80
2019-03-30T08:13:52.025Z,90.46
2019-03-30T08:16:56.422Z,89.25
2019-03-30T08:20:00.879Z,89.15
2019-03-30T08:23:05.301Z,89.14
2019-03-30T08:26:09.667Z,88.60
2019-03-30T08:29:14.004Z,87.87
2019-03-30T08:32:18.357Z,87.64
2019-03-30T08:35:22.928Z,86.94
2019-03-30T08:38:27.278Z,85.27
2019-03-30T08:41:31.632Z,85.66
2019-03-30T08:44:35.976Z,84.36
2019-03-30T08:47:40.399Z,84.61
2019-03-30T08:50:44.765Z,84.53
2019-03-30T08:53:54.879Z,84.31
2019-03-30T08:56:55.236Z,84.10
2019-03-30T08:59:59.586Z,83.11
2019-03-30T09:03:03.957Z,82.89
2019-03-30T09:06:08.417Z,82.33
2019-03-30T09:09:12.760Z,81.18
2019-03-30T09:12:17.096Z,82.15
2019-03-30T09:15:21.526Z,79.99
2019-03-30T09:18:25.965Z,78.95
2019-03-30T09:21:30.434Z,78.00
2019-03-30T09:24:34.765Z,78.38
2019-03-30T09:27:39.259Z,78.91
2019-03-30T09:30:43.702Z,76.14
2019-03-30T09:33:48.046Z,74.44
2019-03-30T09:36:52.479Z,75.22
2019-03-30T09:39:56.932Z,74.60
2019-03-30T09:43:01.273Z,75.33
2019-03-30T09:46:05.597Z,73.50
2019-03-30T09:49:09.937Z,71.71
2019-03-30T09:52:14.339Z,72.80
2019-03-30T09:55:18.788Z,71.41
2019-03-30T09:58:23.153Z,70.31
2019-03-30T10:01:27.486Z,71.69
2019-03-30T10:04:31.870Z,69.94
2019-03-30T10:07:36.317Z,69.63
2019-03-30T10:10:40.692Z,69.72
2019-03-30T10:13:45.073Z,69.04
2019-03-30T10:16:49.449Z,70.11
2019-03-30T10:20:04.389Z,69.38
2019-03-30T10:22:59.937Z,70.29
2019-03-30T10:26:04.295Z,68.69
2019-03-30T10:29:08.679Z,67.75
2019-03-30T10:32:13.039Z,67.94
2019-03-30T10:35:17.400Z,68.57
2019-03-30T10:38:21.797Z,65.21
2019-03-30T10:41:26.142Z,65.67
2019-03-30T10:44:30.588Z,65.54
2019-03-30T10:47:35.013Z,65.82
2019-03-30T10:50:39.366Z,65.45
2019-03-30T10:53:43.719Z,66.28
2019-03-30T10:56:48.080Z,67.38
2019-03-30T10:59:52.436Z,65.64
2019-03-30T11:02:56.793Z,67.16
2019-03-30T11:06:01.185Z,66.84
2019-03-30T11:09:06.439Z,64.40
2019-03-30T11:12:10.805Z,65.30
2019-03-30T11:15:15.175Z,66.61
2019-03-30T11:18:19.532Z,66.10
2019-03-30T11:21:23.869Z,66.85
2019-03-30T11:24:28.242Z,63.51
2019-03-30T11:27:32.580Z,63.77
2019-03-30T11:30:36.957Z,64.54
2019-03-30T11:33:41.366Z,63.98
2019-03-30T11:36:45.701Z,63.81
2019-03-30T11:39:50.072Z,63.77
2019-03-30T11:42:54.424Z,64.43
2019-03-30T11:45:58.856Z,64.07
2019-03-30T11:49:03.192Z,64.30
2019-03-30T11:52:07.656Z,63.80
2019-03-30T11:55:21.595Z,65.40
2019-03-30T11:58:18.242Z,65.43
2019-03-30T12:01:22.604Z,65.08
2019-03-30T12:04:26.971Z,65.14
2019-03-30T12:07:31.330Z,64.19
2019-03-30T12:10:35.675Z,64.10
2019-03-30T12:13:40.192Z,64.44
2019-03-30T12:16:44.706Z,63.61
2019-03-30T12:19:49.075Z,63.99
2019-03-30T12:22:53.452Z,65.00
2019-03-30T12:25:57.923Z,63.51
2019-03-30T12:29:02.390Z,64.92
2019-03-30T12:32:06.825Z,62.51
2019-03-30T12:35:11.341Z,61.96
2019-03-30T12:38:15.706Z,63.91
2019-03-30T12:41:20.166Z,64.32
2019-03-30T12:44:24.516Z,61.35
2019-03-30T12:47:28.862Z,61.74
2019-03-30T12:50:33.311Z,62.22
2019-03-30T12:53:49.418Z,62.02
2019-03-30T12:56:43.734Z,62.40
2019-03-30T12:59:48.076Z,62.21
2019-03-30T13:02:52.533Z,62.76
2019-03-30T13:05:56.877Z,63.22
2019-03-30T13:09:01.317Z,62.29
2019-03-30T13:12:05.849Z,63.10
2019-03-30T13:15:10.895Z,63.49
2019-03-30T13:18:15.228Z,64.28
2019-03-30T13:24:22.619Z,61.82
2019-03-30T13:27:27.068Z,61.68
2019-03-30T13:30:31.417Z,62.94
2019-03-30T13:33:35.796Z,63.88
2019-03-30T13:36:41.052Z,64.07
2019-03-30T13:39:45.869Z,61.48
2019-03-30T13:42:50.230Z,62.17
2019-03-30T13:45:54.553Z,62.50
2019-03-30T13:48:58.926Z,63.20
2019-03-30T13:52:03.320Z,62.62
2019-03-30T13:55:07.862Z,63.50
2019-03-30T13:58:12.225Z,62.82
2019-03-30T14:01:16.657Z,63.37
2019-03-30T14:04:21.007Z,63.40
2019-03-30T14:07:25.458Z,62.62
2019-03-30T14:10:29.830Z,64.20
2019-03-30T14:13:34.234Z,66.11
2019-03-30T14:16:38.688Z,63.76
2019-03-30T14:19:43.044Z,63.38
2019-03-30T14:22:47.488Z,63.58
2019-03-30T14:25:51.839Z,63.08
2019-03-30T14:28:56.194Z,63.13
2019-03-30T14:32:00.542Z,63.84
2019-03-30T14:35:05.266Z,63.58
2019-03-30T14:38:09.618Z,62.47
2019-03-30T14:41:14.082Z,61.75
2019-03-30T14:44:18.475Z,61.74
2019-03-30T14:47:22.843Z,62.25
2019-03-30T14:50:27.298Z,62.94
2019-03-30T14:53:31.676Z,65.22
2019-03-30T14:56:45.323Z,66.69
2019-03-30T14:59:42.370Z,64.49
2019-03-30T15:02:46.792Z,62.93
2019-03-30T15:05:51.162Z,60.34
2019-03-30T15:08:55.522Z,60.64
2019-03-30T15:11:59.879Z,60.75
2019-03-30T15:15:04.464Z,60.84
2019-03-30T15:18:08.808Z,60.87
2019-03-30T15:21:13.250Z,59.52
2019-03-30T15:24:17.650Z,61.32
2019-03-30T15:27:21.971Z,62.11
2019-03-30T15:30:26.476Z,62.34
2019-03-30T15:33:30.954Z,59.58
2019-03-30T15:36:35.390Z,59.00
2019-03-30T15:39:39.854Z,61.78
2019-03-30T15:42:44.235Z,63.10
2019-03-30T15:45:48.589Z,63.08
2019-03-30T15:48:52.949Z,62.74
2019-03-30T15:51:57.304Z,64.14
2019-03-30T15:55:01.715Z,64.60
2019-03-30T15:58:06.258Z,64.18
2019-03-30T16:01:10.665Z,63.72
2019-03-30T16:04:15.090Z,63.23
2019-03-30T16:07:19.527Z,62.85
2019-03-30T16:10:23.964Z,63.65
2019-03-30T16:13:28.309Z,63.64
2019-03-30T16:16:32.775Z,63.86
2019-03-30T16:19:37.113Z,64.64
2019-03-30T16:22:42.032Z,65.13
2019-03-30T16:25:46.446Z,66.40
2019-03-30T16:28:50.800Z,66.45
2019-03-30T16:31:55.256Z,67.31
2019-03-30T16:34:59.622Z,68.35
2019-03-30T16:38:04.005Z,68.94
2019-03-30T16:41:08.361Z,70.39
2019-03-30T16:44:12.739Z,72.07
2019-03-30T16:47:17.126Z,72.64
2019-03-30T16:50:21.597Z,72.87
2019-03-30T16:53:25.959Z,71.62
2019-03-30T16:56:30.400Z,70.84
2019-03-30T16:59:34.959Z,70.67
2019-03-30T17:02:39.331Z,69.96
2019-03-30T17:05:43.678Z,69.11
2019-03-30T17:08:48.059Z,69.48
2019-03-30T17:11:52.420Z,70.81
2019-03-30T17:14:56.788Z,72.06
2019-03-30T17:18:01.163Z,72.43
2019-03-30T17:21:05.542Z,73.58
2019-03-30T17:24:09.941Z,74.50
2019-03-30T17:27:14.403Z,75.11
2019-03-30T17:30:18.714Z,75.63
2019-03-30T17:33:23.135Z,76.10
2019-03-30T17:36:27.502Z,76.59
2019-03-30T17:39:31.923Z,77.78
2019-03-30T17:42:38.704Z,78.38
2019-03-30T17:45:42.443Z,78.89
2019-03-30T17:48:46.776Z,80.00
2019-03-30T17:51:53.884Z,80.27
2019-03-30T17:54:57.345Z,80.92
2019-03-30T17:58:12.825Z,81.29
2019-03-30T18:01:07.860Z,81.84
2019-03-30T18:04:12.275Z,82.65
2019-03-30T18:07:16.631Z,82.93
2019-03-30T18:10:21.052Z,82.77
2019-03-30T18:13:25.402Z,83.31
2019-03-30T18:16:29.766Z,83.90
2019-03-30T18:19:34.212Z,84.14
2019-03-30T18:22:38.557Z,84.16
2019-03-30T18:25:42.936Z,84.97
2019-03-30T18:28:47.434Z,84.59
2019-03-30T18:31:51.963Z,85.21
2019-03-30T18:34:57.061Z,85.43
2019-03-30T18:38:02.969Z,85.94
2019-03-30T18:41:07.333Z,86.55
2019-03-30T18:44:11.757Z,87.04
2019-03-30T18:47:16.097Z,87.37
2019-03-30T18:50:20.437Z,87.39
2019-03-30T18:53:24.823Z,87.76
2019-03-30T18:56:29.158Z,87.96
2019-03-30T18:59:33.505Z,88.33
2019-03-30T19:02:37.859Z,88.78
2019-03-30T19:05:42.208Z,89.36
2019-03-30T19:08:46.566Z,88.72
2019-03-30T19:11:50.899Z,89.90
2019-03-30T19:14:55.253Z,89.99
2019-03-30T19:17:59.682Z,90.29
2019-03-30T19:21:04.037Z,90.21
2019-03-30T19:24:08.375Z,90.01
2019-03-30T19:27:12.736Z,90.01
2019-03-30T19:30:18.973Z,90.73
2019-03-30T19:33:23.326Z,90.58
2019-03-30T19:36:27.660Z,90.69
2019-03-30T19:39:32.043Z,90.36
2019-03-30T19:42:36.381Z,91.00
2019-03-30T19:45:40.740Z,91.37
2019-03-30T19:48:45.138Z,91.96
2019-03-30T19:51:49.484Z,91.48
2019-03-30T19:54:53.842Z,91.33
2019-03-30T19:57:58.215Z,90.76
2019-03-30T20:01:02.632Z,91.30
2019-03-30T20:04:07.884Z,90.85
2019-03-30T20:07:12.432Z,90.11
2019-03-30T20:10:16.907Z,90.70
2019-03-30T20:13:21.262Z,91.19
2019-03-30T20:16:25.682Z,90.66
2019-03-30T20:19:30.009Z,90.71
2019-03-30T20:22:34.356Z,90.51
2019-03-30T20:25:38.788Z,89.84
2019-03-30T20:28:43.151Z,90.34
2019-03-30T20:31:47.497Z,89.47
2019-03-30T20:34:51.851Z,89.82
2019-03-30T20:37:56.196Z,89.34
2019-03-30T20:41:00.559Z,89.13
2019-03-30T20:44:04.972Z,90.07
2019-03-30T20:47:09.332Z,89.94
2019-03-30T20:50:14.334Z,90.63
2019-03-30T20:53:18.667Z,91.14
2019-03-30T20:56:23.034Z,89.90
2019-03-30T20:59:39.284Z,89.82
2019-03-30T21:02:33.489Z,89.46
2019-03-30T21:05:37.881Z,89.79
2019-03-30T21:08:42.248Z,90.05
2019-03-30T21:11:46.626Z,89.50
2019-03-30T21:14:50.988Z,90.05
2019-03-30T21:17:55.369Z,89.78
2019-03-30T21:20:59.770Z,88.95
2019-03-30T21:24:04.140Z,88.53
2019-03-30T21:27:08.512Z,88.37
2019-03-30T21:30:14.568Z,88.23
2019-03-30T21:33:19.007Z,88.63
2019-03-30T21:36:23.344Z,89.05
2019-03-30T21:39:28.155Z,89.13
2019-03-30T21:42:32.544Z,89.29
2019-03-30T21:45:36.950Z,88.81
2019-03-30T21:48:41.339Z,89.18
2019-03-30T21:51:45.688Z,88.90
2019-03-30T21:54:50.052Z,89.01
2019-03-30T21:57:54.418Z,89.07
2019-03-30T22:01:00.046Z,88.82
2019-03-30T22:04:04.678Z,89.42
2019-03-30T22:07:09.018Z,89.10
2019-03-30T22:10:16.423Z,88.33
2019-03-30T22:13:21.678Z,87.39
2019-03-30T22:16:26.217Z,88.49
2019-03-30T22:19:30.558Z,88.43
2019-03-30T22:22:34.893Z,88.41
2019-03-30T22:25:39.266Z,88.67
2019-03-30T22:28:43.595Z,88.87
2019-03-30T22:31:47.990Z,89.36
2019-03-30T22:34:52.333Z,89.16
2019-03-30T22:37:56.709Z,89.01
2019-03-30T22:41:01.053Z,88.90
2019-03-30T22:44:05.602Z,89.01
2019-03-30T22:47:09.954Z,89.27
2019-03-30T22:50:14.633Z,88.75
2019-03-30T22:53:18.990Z,87.16
2019-03-30T22:56:23.338Z,86.21
2019-03-30T22:59:28.517Z,85.20
2019-03-30T23:02:32.950Z,85.29
2019-03-30T23:05:37.373Z,85.05
2019-03-30T23:08:41.733Z,84.31
2019-03-30T23:11:46.063Z,84.71
2019-03-30T23:14:50.393Z,84.80
2019-03-30T23:17:54.735Z,85.49
2019-03-30T23:20:59.102Z,85.16
2019-03-30T23:24:03.634Z,85.66
2019-03-30T23:27:07.962Z,85.30
2019-03-30T23:30:12.584Z,86.03
2019-03-30T23:33:16.992Z,85.78
2019-03-30T23:36:21.335Z,86.37
2019-03-30T23:39:25.673Z,86.82
2019-03-30T23:42:30.015Z,86.62
2019-03-30T23:45:34.368Z,87.21
2019-03-30T23:48:38.710Z,87.09
2019-03-30T23:51:43.041Z,86.94
2019-03-30T23:54:47.484Z,87.56
2019-03-30T23:57:51.825Z,88.01
